createdAt,value
2022-09-25T00:01:00.363Z,12.36
2022-09-25T00:03:30.485Z,12.46
2022-09-25T00:06:09.649Z,12.34
2022-09-25T00:08:37.386Z,12.18
2022-09-25T00:11:11.111Z,12.25
2022-09-25T00:13:38.591Z,11.99
2022-09-25T00:16:05.718Z,11.70
2022-09-25T00:18:51.321Z,12.14
2022-09-25T00:21:18.537Z,11.99
2022-09-25T00:23:46.200Z,11.74
2022-09-25T00:26:15.393Z,11.89
2022-09-25T00:28:43.251Z,11.57
2022-09-25T00:31:11.113Z,11.82
2022-09-25T00:33:37.874Z,11.51
2022-09-25T00:36:07.551Z,11.75
2022-09-25T00:38:35.994Z,11.74
2022-09-25T00:41:03.560Z,11.35
2022-09-25T00:43:40.927Z,11.52
2022-09-25T00:46:13.798Z,11.46
2022-09-25T00:49:00.848Z,11.51
2022-09-25T00:51:34.981Z,11.62
2022-09-25T00:54:05.442Z,11.62
2022-09-25T00:56:37.968Z,11.59
2022-09-25T00:59:06.971Z,11.71
2022-09-25T01:01:33.677Z,11.73
2022-09-25T01:04:00.691Z,11.91
2022-09-25T01:06:28.256Z,11.96
2022-09-25T01:08:56.613Z,11.76
2022-09-25T01:11:23.319Z,11.83
2022-09-25T01:13:54.164Z,11.75
2022-09-25T01:16:35.542Z,11.83
2022-09-25T01:19:20.425Z,12.03
2022-09-25T01:21:54.704Z,11.98
2022-09-25T01:24:42.805Z,11.75
2022-09-25T01:27:27.736Z,11.71
2022-09-25T01:30:05.951Z,11.48
2022-09-25T01:32:43.629Z,11.84
2022-09-25T01:35:22.263Z,11.84
2022-09-25T01:38:00.162Z,11.87
2022-09-25T01:40:26.875Z,11.96
2022-09-25T01:43:01.937Z,11.98
2022-09-25T01:45:55.265Z,11.75
2022-09-25T01:48:26.617Z,11.59
2022-09-25T01:51:31.244Z,12.03
2022-09-25T01:54:04.314Z,11.81
2022-09-25T01:56:39.986Z,11.84
2022-09-25T01:59:13.351Z,11.86
2022-09-25T02:01:42.603Z,11.95
2022-09-25T02:04:16.424Z,11.75
2022-09-25T02:06:47.713Z,11.65
2022-09-25T02:09:20.811Z,11.74
2022-09-25T02:11:51.869Z,11.89
2022-09-25T02:14:23.374Z,11.62
2022-09-25T02:16:56.451Z,11.86
2022-09-25T02:19:42.753Z,11.94
2022-09-25T02:22:20.328Z,11.95
2022-09-25T02:25:00.725Z,11.77
2022-09-25T02:27:28.556Z,11.80
2022-09-25T02:29:58.576Z,11.79
2022-09-25T02:32:31.173Z,11.93
2022-09-25T02:35:00.011Z,11.86
2022-09-25T02:37:27.394Z,11.82
2022-09-25T02:39:58.270Z,11.67
2022-09-25T02:42:36.331Z,11.56
2022-09-25T02:45:42.830Z,11.84
2022-09-25T02:48:16.066Z,11.85
2022-09-25T02:50:54.648Z,11.50
2022-09-25T02:53:36.699Z,11.62
2022-09-25T02:56:09.843Z,11.34
2022-09-25T02:58:52.549Z,11.55
2022-09-25T03:01:22.581Z,11.50
2022-09-25T03:03:53.944Z,11.43
2022-09-25T03:06:22.720Z,11.71
2022-09-25T03:08:54.364Z,11.80
2022-09-25T03:11:21.852Z,11.73
2022-09-25T03:14:07.558Z,12.07
2022-09-25T03:16:52.075Z,11.72
2022-09-25T03:19:22.116Z,11.75
2022-09-25T03:21:50.080Z,11.74
2022-09-25T03:24:17.216Z,11.91
2022-09-25T03:26:44.647Z,11.76
2022-09-25T03:29:15.410Z,11.52
2022-09-25T03:31:42.738Z,11.69
2022-09-25T03:34:11.306Z,11.53
2022-09-25T03:36:38.059Z,11.64
2022-09-25T03:39:06.191Z,11.84
2022-09-25T03:41:35.475Z,11.41
2022-09-25T03:44:02.388Z,11.71
2022-09-25T03:46:31.940Z,11.78
2022-09-25T03:48:58.993Z,11.61
2022-09-25T03:51:27.618Z,11.46
2022-09-25T03:53:54.734Z,11.37
2022-09-25T03:56:24.619Z,11.80
2022-09-25T03:58:54.425Z,11.35
2022-09-25T04:01:22.693Z,11.53
2022-09-25T04:03:50.047Z,11.35
2022-09-25T04:06:20.121Z,11.80
2022-09-25T04:08:48.555Z,11.91
2022-09-25T04:11:17.127Z,11.98
2022-09-25T04:13:46.991Z,11.92
2022-09-25T04:16:16.155Z,12.17
2022-09-25T04:18:43.652Z,12.05
2022-09-25T04:21:13.534Z,11.87
2022-09-25T04:23:41.150Z,11.82
2022-09-25T04:26:09.264Z,11.91
2022-09-25T04:28:36.362Z,11.56
2022-09-25T04:31:04.153Z,11.67
2022-09-25T04:33:46.573Z,11.82
2022-09-25T04:36:14.461Z,11.81
2022-09-25T04:38:41.367Z,11.72
2022-09-25T04:41:08.321Z,11.72
2022-09-25T04:43:35.510Z,11.81
2022-09-25T04:46:06.970Z,11.66
2022-09-25T04:48:34.299Z,11.50
2022-09-25T04:51:01.101Z,11.35
2022-09-25T04:53:30.555Z,11.48
2022-09-25T04:56:02.464Z,11.24
2022-09-25T04:58:29.184Z,11.54
2022-09-25T05:00:55.910Z,11.44
2022-09-25T05:03:22.679Z,11.43
2022-09-25T05:05:49.728Z,11.40
2022-09-25T05:08:16.410Z,11.57
2022-09-25T05:10:44.391Z,11.51
2022-09-25T05:13:11.447Z,11.54
2022-09-25T05:15:38.230Z,11.59
2022-09-25T05:18:15.909Z,11.80
2022-09-25T05:20:42.884Z,11.80
2022-09-25T05:23:09.769Z,11.63
2022-09-25T05:25:36.570Z,11.60
2022-09-25T05:28:03.536Z,11.50
2022-09-25T05:30:32.559Z,11.57
2022-09-25T05:32:59.842Z,11.70
2022-09-25T05:35:29.400Z,11.85
2022-09-25T05:37:56.316Z,11.61
2022-09-25T05:40:24.268Z,11.57
2022-09-25T05:42:52.128Z,11.93
2022-09-25T05:45:20.390Z,11.71
2022-09-25T05:47:47.366Z,11.69
2022-09-25T05:50:16.310Z,11.90
2022-09-25T05:52:43.452Z,11.65
2022-09-25T05:55:11.067Z,12.05
2022-09-25T05:57:38.825Z,12.08
2022-09-25T06:00:11.667Z,11.90
2022-09-25T06:02:38.344Z,11.71
2022-09-25T06:05:05.544Z,12.07
2022-09-25T06:07:32.250Z,11.99
2022-09-25T06:09:58.931Z,11.75
2022-09-25T06:12:25.724Z,12.07
2022-09-25T06:14:52.822Z,11.89
2022-09-25T06:17:20.413Z,11.96
2022-09-25T06:19:47.656Z,11.68
2022-09-25T06:22:14.619Z,11.90
2022-09-25T06:24:41.393Z,11.89
2022-09-25T06:27:08.925Z,11.71
2022-09-25T06:29:36.078Z,12.19
2022-09-25T06:32:05.840Z,12.18
2022-09-25T06:34:32.809Z,11.90
2022-09-25T06:37:01.288Z,11.87
2022-09-25T06:39:28.015Z,11.99
2022-09-25T06:41:54.655Z,11.99
2022-09-25T06:44:23.045Z,12.14
2022-09-25T06:46:54.631Z,12.30
2022-09-25T06:49:22.067Z,12.26
2022-09-25T06:51:51.146Z,12.21
2022-09-25T06:54:18.178Z,12.29
2022-09-25T06:56:49.483Z,12.19
2022-09-25T06:59:17.074Z,12.24
2022-09-25T07:01:43.891Z,12.12
2022-09-25T07:04:10.716Z,12.37
2022-09-25T07:06:37.977Z,12.21
2022-09-25T07:09:04.898Z,12.03
2022-09-25T07:11:31.649Z,12.18
2022-09-25T07:13:58.667Z,12.20
2022-09-25T07:16:27.898Z,12.19
2022-09-25T07:18:57.399Z,12.27
2022-09-25T07:21:25.897Z,12.46
2022-09-25T07:23:52.682Z,12.19
2022-09-25T07:26:22.531Z,12.49
2022-09-25T07:28:57.728Z,12.07
2022-09-25T07:31:29.658Z,12.50
2022-09-25T07:33:59.589Z,12.26
2022-09-25T07:36:26.263Z,12.30
2022-09-25T07:38:53.491Z,12.51
2022-09-25T07:41:22.878Z,12.40
2022-09-25T07:46:44.881Z,12.41
2022-09-25T07:49:12.149Z,12.28
2022-09-25T07:51:41.701Z,12.25
2022-09-25T07:54:08.539Z,12.31
2022-09-25T07:56:35.373Z,12.45
2022-09-25T07:59:02.110Z,12.71
2022-09-25T08:01:28.896Z,12.54
2022-09-25T08:03:55.690Z,12.84
2022-09-25T08:06:22.382Z,12.67
2022-09-25T08:08:49.137Z,12.85
2022-09-25T08:11:18.377Z,13.02
2022-09-25T08:13:46.140Z,12.61
2022-09-25T08:16:18.169Z,12.96
2022-09-25T08:18:46.684Z,13.11
2022-09-25T08:21:16.076Z,12.73
2022-09-25T08:23:48.045Z,13.21
2022-09-25T08:26:15.678Z,13.27
2022-09-25T08:28:42.659Z,13.06
2022-09-25T08:31:09.462Z,13.38
2022-09-25T08:33:37.524Z,13.17
2022-09-25T08:36:05.623Z,13.09
2022-09-25T08:38:33.396Z,13.48
2022-09-25T08:41:09.668Z,13.33
2022-09-25T08:43:43.111Z,13.27
2022-09-25T08:46:41.283Z,13.32
2022-09-25T08:49:11.303Z,13.63
2022-09-25T08:51:38.107Z,13.73
2022-09-25T08:54:06.010Z,13.45
2022-09-25T08:56:35.269Z,13.69
2022-09-25T08:59:10.821Z,13.50
2022-09-25T09:01:44.201Z,13.89
2022-09-25T09:04:19.879Z,14.01
2022-09-25T09:07:08.113Z,14.24
2022-09-25T09:09:52.974Z,14.59
2022-09-25T09:12:32.124Z,15.11
2022-09-25T09:15:16.683Z,15.58
2022-09-25T09:17:43.701Z,15.76
2022-09-25T09:20:19.383Z,15.25
2022-09-25T09:22:53.285Z,15.49
2022-09-25T09:25:35.246Z,15.92
2022-09-25T09:28:23.082Z,15.73
2022-09-25T09:30:58.716Z,15.80
2022-09-25T09:33:35.636Z,15.44
2022-09-25T09:36:13.682Z,15.67
2022-09-25T09:39:02.603Z,15.74
2022-09-25T09:41:44.208Z,15.84
2022-09-25T09:44:13.833Z,16.17
2022-09-25T09:47:04.229Z,16.27
2022-09-25T09:49:47.539Z,16.62
2022-09-25T09:52:25.598Z,17.01
2022-09-25T09:55:07.673Z,17.03
2022-09-25T09:57:47.563Z,16.96
2022-09-25T10:00:17.129Z,17.30
2022-09-25T10:02:46.304Z,17.26
2022-09-25T10:05:22.949Z,17.30
2022-09-25T10:07:51.452Z,17.00
2022-09-25T10:10:19.626Z,16.94
2022-09-25T10:12:53.060Z,16.86
2022-09-25T10:15:36.317Z,16.84
2022-09-25T10:18:04.474Z,16.88
2022-09-25T10:21:06.861Z,16.86
2022-09-25T10:23:51.632Z,16.85
2022-09-25T10:26:33.427Z,17.03
2022-09-25T10:29:05.794Z,16.85
2022-09-25T10:31:40.834Z,17.15
2022-09-25T10:34:13.659Z,17.90
2022-09-25T10:36:46.544Z,18.02
2022-09-25T10:39:44.718Z,18.26
2022-09-25T10:42:37.592Z,18.39
2022-09-25T10:45:32.174Z,18.39
2022-09-25T10:48:17.718Z,18.43
2022-09-25T10:50:44.644Z,18.40
2022-09-25T10:53:33.378Z,18.21
2022-09-25T10:56:13.089Z,18.23
2022-09-25T10:58:55.284Z,18.37
2022-09-25T11:01:31.251Z,18.54
2022-09-25T11:03:59.013Z,18.73
2022-09-25T11:06:33.379Z,18.35
2022-09-25T11:09:13.699Z,18.97
2022-09-25T11:11:41.459Z,18.74
2022-09-25T11:14:22.657Z,18.26
2022-09-25T11:16:55.493Z,18.57
2022-09-25T11:19:25.419Z,18.63
2022-09-25T11:22:18.341Z,18.49
2022-09-25T11:25:01.086Z,18.63
2022-09-25T11:27:49.168Z,18.84
2022-09-25T11:30:18.309Z,18.62
2022-09-25T11:33:09.098Z,18.60
2022-09-25T11:35:45.992Z,18.38
2022-09-25T11:38:15.712Z,18.76
2022-09-25T11:41:18.729Z,19.05
2022-09-25T11:43:58.371Z,19.01
2022-09-25T11:47:04.973Z,19.01
2022-09-25T11:49:38.323Z,19.12
2022-09-25T11:52:23.953Z,19.03
2022-09-25T11:55:34.763Z,19.07
2022-09-25T11:58:04.361Z,19.24
2022-09-25T12:00:38.653Z,19.31
2022-09-25T12:03:30.419Z,19.00
2022-09-25T12:06:15.978Z,19.23
2022-09-25T12:09:04.267Z,19.31
2022-09-25T12:11:45.623Z,18.94
2022-09-25T12:14:22.536Z,19.05
2022-09-25T12:17:01.917Z,18.91
2022-09-25T12:19:45.649Z,19.14
2022-09-25T12:22:49.843Z,18.99
2022-09-25T12:25:45.189Z,19.24
2022-09-25T12:28:17.843Z,19.02
2022-09-25T12:31:10.698Z,19.09
2022-09-25T12:33:46.328Z,18.76
2022-09-25T12:36:19.415Z,18.74
2022-09-25T12:38:55.518Z,19.26
2022-09-25T12:41:36.453Z,19.26
2022-09-25T12:44:27.451Z,19.29
2022-09-25T12:46:57.731Z,18.83
2022-09-25T12:49:37.306Z,19.11
2022-09-25T12:52:17.366Z,19.36
2022-09-25T12:55:07.647Z,19.21
2022-09-25T12:57:46.034Z,19.27
2022-09-25T13:00:29.199Z,18.83
2022-09-25T13:03:02.248Z,19.29
2022-09-25T13:05:34.294Z,19.22
2022-09-25T13:08:12.998Z,19.06
2022-09-25T13:11:02.320Z,18.79
2022-09-25T13:13:36.221Z,18.40
2022-09-25T13:16:03.757Z,17.69
2022-09-25T13:18:34.213Z,18.17
2022-09-25T13:21:31.790Z,18.39
2022-09-25T13:24:00.300Z,18.07
2022-09-25T13:26:28.256Z,17.52
2022-09-25T13:29:01.908Z,17.69
2022-09-25T13:31:34.627Z,17.29
2022-09-25T13:34:01.566Z,17.97
2022-09-25T13:36:38.129Z,17.25
2022-09-25T13:39:45.018Z,17.96
2022-09-25T13:42:39.493Z,17.39
2022-09-25T13:45:26.203Z,18.02
2022-09-25T13:48:04.450Z,17.27
2022-09-25T13:50:37.864Z,17.31
2022-09-25T13:53:23.172Z,17.16
2022-09-25T13:55:56.496Z,17.70
2022-09-25T13:58:29.323Z,17.27
2022-09-25T14:01:03.177Z,17.88
2022-09-25T14:03:50.543Z,17.72
2022-09-25T14:06:20.879Z,17.96
2022-09-25T14:08:49.654Z,17.16
2022-09-25T14:11:22.484Z,17.40
2022-09-25T14:13:52.877Z,17.19
2022-09-25T14:16:30.703Z,17.82
2022-09-25T14:18:59.296Z,17.10
2022-09-25T14:21:28.529Z,17.92
2022-09-25T14:24:13.232Z,18.02
2022-09-25T14:26:45.568Z,17.82
2022-09-25T14:29:23.672Z,17.94
2022-09-25T14:32:42.855Z,18.09
2022-09-25T14:35:25.169Z,18.34
2022-09-25T14:38:12.341Z,18.17
2022-09-25T14:41:56.157Z,18.30
2022-09-25T14:44:57.702Z,18.13
2022-09-25T14:47:34.992Z,17.80
2022-09-25T14:50:03.171Z,18.08
2022-09-25T14:52:34.859Z,18.32
2022-09-25T14:55:03.276Z,18.15
2022-09-25T14:57:34.856Z,18.14
2022-09-25T15:00:08.215Z,18.01
2022-09-25T15:02:41.866Z,17.78
2022-09-25T15:05:21.632Z,17.78
2022-09-25T15:07:48.320Z,18.18
2022-09-25T15:10:34.854Z,18.07
2022-09-25T15:13:10.591Z,18.03
2022-09-25T15:15:38.875Z,17.96
2022-09-25T15:18:13.113Z,18.44
2022-09-25T15:20:46.971Z,18.09
2022-09-25T15:23:21.331Z,17.83
2022-09-25T15:25:51.775Z,18.05
2022-09-25T15:28:25.525Z,18.03
2022-09-25T15:31:00.772Z,18.47
2022-09-25T15:33:34.161Z,18.29
2022-09-25T15:36:06.339Z,17.92
2022-09-25T15:38:35.774Z,18.25
2022-09-25T15:41:22.255Z,18.28
2022-09-25T15:44:18.461Z,17.36
2022-09-25T15:47:00.869Z,18.01
2022-09-25T15:49:39.096Z,18.21
2022-09-25T15:52:25.214Z,17.93
2022-09-25T15:54:51.984Z,17.48
2022-09-25T15:57:28.344Z,17.32
2022-09-25T16:00:13.946Z,17.47
2022-09-25T16:03:09.744Z,17.54
2022-09-25T16:05:43.749Z,17.46
2022-09-25T16:08:25.804Z,17.69
2022-09-25T16:11:21.821Z,17.86
2022-09-25T16:13:53.996Z,17.14
2022-09-25T16:16:22.219Z,17.11
2022-09-25T16:18:51.219Z,17.14
2022-09-25T16:21:26.933Z,16.88
2022-09-25T16:24:00.132Z,16.85
2022-09-25T16:26:36.214Z,16.93
2022-09-25T16:29:19.489Z,16.51
2022-09-25T16:31:47.077Z,16.60
2022-09-25T16:34:34.356Z,16.16
2022-09-25T16:37:05.277Z,16.44
2022-09-25T16:39:36.209Z,16.07
2022-09-25T16:42:26.623Z,16.22
2022-09-25T16:45:03.942Z,15.68
2022-09-25T16:47:30.914Z,16.13
2022-09-25T16:49:57.705Z,15.86
2022-09-25T16:52:29.541Z,15.68
2022-09-25T16:54:57.506Z,15.84
2022-09-25T16:57:27.993Z,15.93
2022-09-25T16:59:55.032Z,16.24
2022-09-25T17:02:37.293Z,16.16
2022-09-25T17:05:08.377Z,16.04
2022-09-25T17:07:35.193Z,16.02
2022-09-25T17:10:02.474Z,16.03
2022-09-25T17:12:31.478Z,16.28
2022-09-25T17:14:58.673Z,15.72
2022-09-25T17:17:25.527Z,15.58
2022-09-25T17:19:52.232Z,15.60
2022-09-25T17:22:18.997Z,15.69
2022-09-25T17:24:45.857Z,15.41
2022-09-25T17:27:14.818Z,15.51
2022-09-25T17:29:42.786Z,15.26
2022-09-25T17:32:17.807Z,15.38
2022-09-25T17:34:46.589Z,14.67
2022-09-25T17:37:13.604Z,15.13
2022-09-25T17:39:40.268Z,15.03
2022-09-25T18:35:56.238Z,13.76
2022-09-25T18:38:23.622Z,13.85
2022-09-25T18:40:59.888Z,14.15
2022-09-25T18:43:27.743Z,14.13
2022-09-25T18:45:56.645Z,14.25
2022-09-25T18:51:08.745Z,13.60
2022-09-25T18:56:27.209Z,14.05
2022-09-25T18:58:54.503Z,13.83
2022-09-25T19:01:21.715Z,14.22
2022-09-25T19:03:52.998Z,13.91
2022-09-25T19:06:20.385Z,14.14
2022-09-25T19:08:55.958Z,13.96
2022-09-25T19:11:27.604Z,14.26
2022-09-25T19:13:54.866Z,14.30
2022-09-25T19:16:22.419Z,14.33
2022-09-25T19:18:50.400Z,14.31
2022-09-25T19:21:22.451Z,14.60
2022-09-25T19:23:50.067Z,14.76
2022-09-25T19:26:20.996Z,14.64
2022-09-25T19:28:48.473Z,14.16
2022-09-25T19:31:17.884Z,14.22
2022-09-25T19:33:44.848Z,14.08
2022-09-25T19:36:38.613Z,14.52
2022-09-25T19:39:05.216Z,14.28
2022-09-25T19:41:34.405Z,13.84
2022-09-25T19:44:08.182Z,14.31
2022-09-25T19:46:40.316Z,14.12
2022-09-25T19:49:07.248Z,13.83
2022-09-25T19:51:34.108Z,14.16
2022-09-25T19:54:00.789Z,14.09
2022-09-25T19:56:27.479Z,13.87
2022-09-25T19:58:54.163Z,14.10
2022-09-25T20:01:27.712Z,14.31
2022-09-25T20:03:58.290Z,14.28
2022-09-25T20:06:26.981Z,14.51
2022-09-25T20:08:58.180Z,14.59
2022-09-25T20:11:26.000Z,13.93
2022-09-25T20:13:54.123Z,14.38
2022-09-25T20:16:26.399Z,14.35
2022-09-25T20:18:57.811Z,14.12
2022-09-25T20:21:25.644Z,14.41
2022-09-25T20:23:54.478Z,14.49
2022-09-25T20:26:23.327Z,14.70
2022-09-25T20:28:59.204Z,14.60
2022-09-25T20:31:27.889Z,14.87
2022-09-25T20:33:55.102Z,14.22
2022-09-25T20:36:22.933Z,14.63
2022-09-25T20:38:51.499Z,14.41
2022-09-25T20:41:19.625Z,14.59
2022-09-25T20:43:50.740Z,14.63
2022-09-25T20:46:20.492Z,14.91
2022-09-25T20:48:51.234Z,14.83
2022-09-25T20:51:20.831Z,14.69
2022-09-25T20:53:52.164Z,14.73
2022-09-25T20:56:19.617Z,14.77
2022-09-25T20:58:52.178Z,14.74
2022-09-25T21:01:22.910Z,14.53
2022-09-25T21:03:51.256Z,14.55
2022-09-25T21:06:19.313Z,14.44
2022-09-25T21:08:47.093Z,14.64
2022-09-25T21:11:13.893Z,14.62
2022-09-25T21:13:41.664Z,14.46
2022-09-25T21:16:11.063Z,14.23
2022-09-25T21:18:39.528Z,14.57
2022-09-25T21:21:16.143Z,14.91
2022-09-25T21:23:43.638Z,14.48
2022-09-25T21:26:14.968Z,14.89
2022-09-25T21:28:48.227Z,14.95
2022-09-25T21:31:14.769Z,15.06
2022-09-25T21:33:42.615Z,14.80
2022-09-25T21:36:11.655Z,14.80
2022-09-25T21:38:38.629Z,14.75
2022-09-25T21:41:07.737Z,14.98
2022-09-25T21:43:35.641Z,15.02
2022-09-25T21:46:07.815Z,14.80
2022-09-25T21:48:36.156Z,15.08
2022-09-25T21:51:05.324Z,14.85
2022-09-25T21:53:33.936Z,14.60
2022-09-25T21:56:02.565Z,15.03
2022-09-25T21:58:29.630Z,14.58
2022-09-25T22:01:26.928Z,14.35
2022-09-25T22:03:57.020Z,14.51
2022-09-25T22:06:30.340Z,14.67
2022-09-25T22:09:01.705Z,14.63
2022-09-25T22:11:29.257Z,14.80
2022-09-25T22:13:57.874Z,14.49
2022-09-25T22:16:37.039Z,14.55
2022-09-25T22:19:19.153Z,14.56
2022-09-25T22:21:47.781Z,14.43
2022-09-25T22:24:18.131Z,14.44
2022-09-25T22:26:49.508Z,14.37
2022-09-25T22:29:21.159Z,14.07
2022-09-25T22:31:48.658Z,14.16
2022-09-25T22:34:18.410Z,14.14
2022-09-25T22:36:45.182Z,13.78
2022-09-25T22:39:14.430Z,13.89
2022-09-25T22:41:41.591Z,13.80
2022-09-25T22:44:08.454Z,13.91
2022-09-25T22:46:35.272Z,13.77
2022-09-25T22:49:02.914Z,13.78
2022-09-25T22:51:29.714Z,13.95
2022-09-25T22:53:56.504Z,13.61
2022-09-25T22:56:24.827Z,13.77
2022-09-25T22:58:57.678Z,13.86
2022-09-25T23:01:38.003Z,13.65
2022-09-25T23:04:07.762Z,13.85
2022-09-25T23:06:35.115Z,13.52
2022-09-25T23:09:05.447Z,13.51
2022-09-25T23:11:32.589Z,13.57
2022-09-25T23:14:01.684Z,13.81
2022-09-25T23:16:29.990Z,13.46
2022-09-25T23:19:00.762Z,13.40
2022-09-25T23:21:28.990Z,13.42
2022-09-25T23:24:00.951Z,13.51
2022-09-25T23:26:28.906Z,13.41
2022-09-25T23:28:55.883Z,13.41
2022-09-25T23:31:22.703Z,13.40
2022-09-25T23:33:49.491Z,13.14
2022-09-25T23:36:20.296Z,13.03
2022-09-25T23:38:48.304Z,12.86
2022-09-25T23:41:19.646Z,12.83
2022-09-25T23:43:47.650Z,12.71
2022-09-25T23:46:16.170Z,13.01
2022-09-25T23:48:44.220Z,12.92
2022-09-25T23:51:12.069Z,13.06
2022-09-25T23:53:38.899Z,13.18
2022-09-25T23:56:16.018Z,13.37
2022-09-25T23:58:43.124Z,13.29
